Time;durP1;ratioP1;P1;durP2;ratioP2;P2;SDS_P1;SDS_P2;PMS_P1;PMS_P2;Temp;Humidity;BMP_temperature;BMP_pressure;BME280_temperature;BME280_humidity;BME280_pressure;Samples;Min_cycle;Max_cycle;Signal;HPM_P1;HPM_P2
2021/10/21 00:00:46;;;;;;;31.23;16.50;;;;;;;6.78;99.11;95774.75;5104557;28;20047;-73
2021/10/21 00:03:13;;;;;;;36.08;15.88;;;;;;;6.63;99.58;95762.66;5107132;27;20050;-74
2021/10/21 00:05:40;;;;;;;29.83;15.95;;;;;;;6.69;99.50;95777.44;5105805;27;20054;-74
2021/10/21 00:08:08;;;;;;;30.70;15.85;;;;;;;6.65;99.12;95770.25;5104940;28;20035;-74
2021/10/21 00:10:35;;;;;;;34.80;16.35;;;;;;;6.54;99.09;95763.75;5103240;28;20052;-74
2021/10/21 00:13:01;;;;;;;31.88;15.52;;;;;;;6.48;98.41;95754.94;5104476;28;20114;-74
2021/10/21 00:15:29;;;;;;;29.48;14.98;;;;;;;6.56;98.06;95769.53;5108973;27;20415;-74
2021/10/21 00:17:56;;;;;;;31.20;17.05;;;;;;;6.53;98.01;95769.91;5104776;27;20051;-74
2021/10/21 00:20:23;;;;;;;28.67;16.17;;;;;;;6.47;98.03;95762.88;5085362;28;20040;-74
2021/10/21 00:22:49;;;;;;;32.67;15.65;;;;;;;6.47;97.76;95758.50;5104640;28;20039;-74
2021/10/21 00:25:16;;;;;;;30.10;14.93;;;;;;;6.51;97.42;95764.91;5104121;27;20063;-74
2021/10/21 00:27:43;;;;;;;28.08;13.68;;;;;;;6.42;96.88;95758.22;5105300;27;20052;-74
2021/10/21 00:30:10;;;;;;;37.17;15.75;;;;;;;6.44;95.99;95763.22;5104547;28;20039;-74
2021/10/21 00:32:37;;;;;;;31.27;15.82;;;;;;;6.31;95.63;95746.56;5104336;27;20043;-74
2021/10/21 00:35:04;;;;;;;32.03;14.55;;;;;;;6.25;95.21;95746.50;5105608;27;20032;-74
2021/10/21 00:37:31;;;;;;;27.10;15.68;;;;;;;6.27;94.68;95755.69;5103627;28;20043;-73
2021/10/21 00:39:58;;;;;;;30.13;14.13;;;;;;;6.19;95.49;95750.59;5104992;27;20059;-74
2021/10/21 00:42:24;;;;;;;31.23;14.43;;;;;;;6.07;96.85;95746.88;5103975;28;20574;-73
2021/10/21 00:44:51;;;;;;;28.45;15.57;;;;;;;6.04;97.58;95747.25;5106048;27;20051;-74
2021/10/21 00:47:19;;;;;;;33.38;13.93;;;;;;;6.03;97.65;95743.03;5105872;27;20051;-74
2021/10/21 00:49:46;;;;;;;32.92;15.68;;;;;;;6.03;97.66;95745.63;5107232;27;20040;-73
2021/10/21 00:52:14;;;;;;;27.08;13.43;;;;;;;6.02;97.90;95738.88;5102957;28;20055;-74
2021/10/21 00:54:42;;;;;;;29.15;15.00;;;;;;;5.93;98.10;95741.50;5104122;28;20102;-74
2021/10/21 00:57:12;;;;;;;34.75;17.52;;;;;;;5.97;98.21;95738.59;5104085;27;20044;-73
2021/10/21 00:59:41;;;;;;;40.35;19.27;;;;;;;5.93;97.77;95738.91;5108978;27;20389;-74
2021/10/21 01:02:08;;;;;;;34.33;18.23;;;;;;;5.91;97.83;95733.13;5096264;28;20055;-74
2021/10/21 01:04:36;;;;;;;41.95;20.95;;;;;;;5.89;97.76;95737.66;5100796;28;20035;-73
2021/10/21 01:07:02;;;;;;;36.45;19.23;;;;;;;5.78;98.80;95738.13;5103383;28;20050;-74
2021/10/21 01:09:32;;;;;;;39.25;19.75;;;;;;;5.73;99.36;95735.28;5102940;28;20043;-74
2021/10/21 01:11:59;;;;;;;40.25;18.85;;;;;;;5.71;99.53;95730.28;5102213;28;20039;-74
2021/10/21 01:14:26;;;;;;;32.63;16.17;;;;;;;5.69;100.00;95719.31;5106951;28;20043;-73
2021/10/21 01:16:53;;;;;;;35.13;16.98;;;;;;;5.69;99.74;95716.72;5103698;28;20577;-74
2021/10/21 01:19:22;;;;;;;35.13;16.35;;;;;;;5.62;99.38;95717.59;5089115;28;20040;-73
2021/10/21 01:21:52;;;;;;;35.55;16.90;;;;;;;5.60;99.24;95711.81;5103557;28;20036;-74
2021/10/21 01:24:19;;;;;;;27.35;14.98;;;;;;;5.61;98.94;95710.84;5103803;28;20044;-74
2021/10/21 01:26:48;;;;;;;30.75;15.38;;;;;;;5.57;98.70;95709.59;5104652;28;20047;-74
2021/10/21 01:29:17;;;;;;;29.55;15.00;;;;;;;5.54;98.34;95701.19;5102432;28;20101;-73
2021/10/21 01:31:46;;;;;;;25.50;13.70;;;;;;;5.51;97.16;95706.75;5102821;28;20096;-73
2021/10/21 01:34:14;;;;;;;26.33;13.13;;;;;;;5.39;97.33;95697.81;5109015;28;20036;-74
2021/10/21 01:36:43;;;;;;;27.92;13.90;;;;;;;5.44;97.78;95710.19;5109307;28;20128;-73
2021/10/21 01:39:12;;;;;;;25.05;14.02;;;;;;;5.41;97.80;95716.53;5102161;28;20044;-73
2021/10/21 01:41:39;;;;;;;26.60;14.32;;;;;;;5.37;97.11;95710.13;5104621;28;20036;-73
2021/10/21 01:44:06;;;;;;;21.58;12.55;;;;;;;5.30;97.09;95709.22;5103966;28;20126;-73
2021/10/21 01:46:33;;;;;;;26.58;12.13;;;;;;;5.27;97.06;95709.56;5106531;28;20718;-73
2021/10/21 01:49:00;;;;;;;27.42;11.32;;;;;;;5.11;96.69;95690.66;5090977;28;20112;-73
2021/10/21 01:51:27;;;;;;;28.60;12.65;;;;;;;5.12;96.16;95702.59;5103631;28;20043;-73
2021/10/21 01:53:54;;;;;;;22.90;11.75;;;;;;;5.09;96.49;95708.09;5102498;28;20044;-73
2021/10/21 01:56:20;;;;;;;21.35;10.23;;;;;;;5.06;96.59;95702.47;5102939;28;20043;-74
2021/10/21 01:58:47;;;;;;;22.70;11.77;;;;;;;5.04;96.16;95694.94;5105920;28;20039;-74
2021/10/21 02:01:14;;;;;;;24.63;12.35;;;;;;;4.94;97.18;95691.78;5094266;28;20071;-73
2021/10/21 02:03:41;;;;;;;22.52;10.77;;;;;;;4.86;97.63;95689.25;5112352;28;20043;-74
2021/10/21 02:06:09;;;;;;;19.52;10.88;;;;;;;4.69;98.79;95686.78;5100832;28;20066;-74
2021/10/21 02:08:36;;;;;;;21.02;11.00;;;;;;;4.82;98.81;95700.91;5104910;27;20039;-73
2021/10/21 02:11:02;;;;;;;26.25;12.15;;;;;;;4.77;98.49;95697.06;5106255;28;20043;-73
2021/10/21 02:13:29;;;;;;;23.50;12.40;;;;;;;4.52;97.90;95654.34;5107275;28;20097;-74
2021/10/21 02:15:56;;;;;;;21.85;11.07;;;;;;;4.73;98.22;95697.56;5105859;28;20039;-73
2021/10/21 02:18:23;;;;;;;22.92;11.63;;;;;;;4.63;98.50;95672.03;5105666;27;20054;-73
2021/10/21 02:20:51;;;;;;;27.95;12.07;;;;;;;4.74;98.99;95684.50;5104845;27;20551;-73
2021/10/21 02:23:17;;;;;;;25.13;13.00;;;;;;;4.76;99.22;95687.72;5104912;28;20093;-73
2021/10/21 02:25:44;;;;;;;22.00;10.98;;;;;;;4.75;99.49;95680.97;5107679;27;20044;-74
2021/10/21 02:28:11;;;;;;;20.52;10.63;;;;;;;4.77;99.47;95684.16;5106872;27;20043;-73
2021/10/21 02:30:38;;;;;;;19.90;11.15;;;;;;;4.75;99.74;95673.22;5104371;28;20102;-73
2021/10/21 02:33:05;;;;;;;23.20;13.20;;;;;;;4.74;99.07;95684.50;5106129;28;20044;-74
2021/10/21 02:35:31;;;;;;;26.55;13.80;;;;;;;4.64;98.93;95668.44;5105020;27;20043;-73
2021/10/21 02:37:58;;;;;;;28.20;12.80;;;;;;;4.73;98.95;95679.50;5107132;27;20496;-73
2021/10/21 02:40:25;;;;;;;28.75;13.18;;;;;;;4.64;99.40;95673.59;5107029;27;20048;-73
2021/10/21 02:42:52;;;;;;;27.38;13.43;;;;;;;4.63;99.67;95673.78;5107586;27;20039;-73
2021/10/21 02:45:21;;;;;;;24.23;11.63;;;;;;;4.63;99.24;95666.84;5105511;28;20088;-74
2021/10/21 02:47:48;;;;;;;22.98;11.98;;;;;;;4.64;99.47;95668.44;5104284;28;20051;-74
2021/10/21 02:50:15;;;;;;;26.60;12.27;;;;;;;4.61;99.29;95673.97;5104404;28;20814;-74
2021/10/21 02:52:42;;;;;;;25.02;11.23;;;;;;;4.46;99.29;95649.88;5106132;27;20032;-74
2021/10/21 02:55:09;;;;;;;28.35;14.73;;;;;;;4.54;98.91;95678.22;5107382;27;20039;-74
2021/10/21 02:57:36;;;;;;;23.17;11.85;;;;;;;4.47;98.41;95661.81;5104043;27;20052;-73
2021/10/21 03:00:05;;;;;;;31.67;11.55;;;;;;;4.49;98.31;95670.19;5091357;28;20040;-74
2021/10/21 03:02:32;;;;;;;22.70;11.85;;;;;;;4.46;98.89;95667.94;5105737;27;20040;-74
2021/10/21 03:04:59;;;;;;;30.17;14.63;;;;;;;4.52;98.99;95674.97;5103563;28;20086;-73
2021/10/21 03:07:25;;;;;;;25.20;12.30;;;;;;;4.54;98.79;95665.31;5107992;27;20044;-74
2021/10/21 03:09:52;;;;;;;20.65;12.30;;;;;;;4.55;99.16;95669.47;5109254;27;20523;-74
2021/10/21 03:12:19;;;;;;;27.13;14.45;;;;;;;4.55;99.07;95664.31;5105854;27;20050;-74
2021/10/21 03:14:46;;;;;;;25.40;12.13;;;;;;;4.49;98.79;95654.72;5105633;27;20050;-74
2021/10/21 03:17:13;;;;;;;24.27;12.60;;;;;;;4.48;98.71;95658.25;5104730;27;22046;-74
2021/10/21 03:19:40;;;;;;;23.02;11.90;;;;;;;4.46;97.88;95660.19;5088664;27;20056;-73
2021/10/21 03:22:06;;;;;;;19.92;10.88;;;;;;;4.37;98.66;95652.50;5105282;27;20126;-73
2021/10/21 03:24:33;;;;;;;29.77;12.48;;;;;;;4.33;98.68;95651.25;5107514;27;20097;-74
2021/10/21 03:27:00;;;;;;;26.42;13.85;;;;;;;4.32;98.92;95659.97;5105755;27;20490;-73
2021/10/21 03:29:27;;;;;;;26.42;12.60;;;;;;;4.32;98.75;95648.84;5105036;28;20105;-73
2021/10/21 03:31:53;;;;;;;23.10;13.50;;;;;;;4.29;99.52;95650.00;5103431;28;20043;-73
2021/10/21 03:34:20;;;;;;;27.45;12.65;;;;;;;4.30;99.74;95655.94;5103328;28;20554;-74
2021/10/21 03:36:47;;;;;;;27.27;14.70;;;;;;;4.24;99.45;95647.13;5107587;27;20040;-73
2021/10/21 03:39:14;;;;;;;29.75;12.82;;;;;;;4.17;98.40;95633.31;5103772;27;20554;-73
2021/10/21 03:41:40;;;;;;;32.90;15.00;;;;;;;4.20;98.21;95640.72;5106375;27;20043;-73
2021/10/21 03:44:07;;;;;;;25.80;13.00;;;;;;;4.15;97.65;95640.41;5106129;27;20092;-73
2021/10/21 03:46:34;;;;;;;21.23;11.57;;;;;;;4.06;97.89;95638.88;5103190;27;20039;-73
2021/10/21 03:49:01;;;;;;;29.38;13.15;;;;;;;3.99;97.89;95639.53;5104568;27;20047;-73
2021/10/21 03:51:27;;;;;;;33.03;13.65;;;;;;;3.96;97.94;95639.06;5106744;27;20039;-73
2021/10/21 03:53:54;;;;;;;23.23;13.13;;;;;;;3.86;97.62;95618.66;5103737;27;20051;-73
2021/10/21 03:56:21;;;;;;;28.52;14.07;;;;;;;3.90;97.77;95634.59;5082989;28;20063;-73
2021/10/21 03:58:48;;;;;;;24.45;12.55;;;;;;;3.74;98.03;95609.72;5100756;28;20062;-73
2021/10/21 04:01:15;;;;;;;24.48;14.10;;;;;;;3.88;98.65;95637.34;5106170;27;20054;-73
2021/10/21 04:03:42;;;;;;;28.88;13.00;;;;;;;3.88;98.83;95629.59;5105831;27;20118;-74
2021/10/21 04:06:09;;;;;;;24.55;12.93;;;;;;;3.80;98.98;95625.31;5083924;28;20044;-73
2021/10/21 04:08:36;;;;;;;26.42;13.07;;;;;;;3.77;98.88;95617.13;5099247;27;20036;-73
2021/10/21 04:11:03;;;;;;;27.55;14.45;;;;;;;3.82;98.77;95627.72;5101874;28;20046;-74
2021/10/21 04:13:30;;;;;;;28.95;13.02;;;;;;;3.79;99.00;95622.91;5106259;28;20561;-73
2021/10/21 04:15:58;;;;;;;28.58;11.45;;;;;;;3.80;99.35;95620.16;5074503;28;20451;-73
2021/10/21 04:18:25;;;;;;;21.63;12.35;;;;;;;3.80;99.21;95619.34;5103722;27;20059;-73
2021/10/21 04:20:52;;;;;;;24.45;11.77;;;;;;;3.80;99.66;95609.06;5103082;28;20585;-72
2021/10/21 04:23:19;;;;;;;18.38;9.65;;;;;;;3.78;99.80;95606.66;5102342;28;20417;-71
2021/10/21 04:25:46;;;;;;;26.85;10.63;;;;;;;3.76;100.00;95612.91;5103172;28;20031;-72
2021/10/21 04:28:13;;;;;;;20.52;10.57;;;;;;;3.72;100.00;95616.81;5113893;27;20096;-71
2021/10/21 04:30:40;;;;;;;26.48;12.48;;;;;;;3.72;100.00;95602.16;5087949;27;20074;-71
2021/10/21 04:33:07;;;;;;;24.35;13.20;;;;;;;3.76;100.00;95598.28;5106524;27;20044;-72
2021/10/21 04:35:33;;;;;;;20.90;11.10;;;;;;;3.79;100.00;95591.97;5085215;28;20074;-71
2021/10/21 04:38:02;;;;;;;27.52;14.38;;;;;;;3.79;100.00;95591.97;5105376;28;20424;-71
2021/10/21 04:40:29;;;;;;;26.73;14.20;;;;;;;3.91;100.00;95605.28;5105963;27;20039;-71
2021/10/21 04:42:56;;;;;;;35.78;16.50;;;;;;;3.90;100.00;95604.47;5104404;28;20051;-71
2021/10/21 04:45:23;;;;;;;33.13;15.07;;;;;;;3.81;100.00;95587.44;5104353;27;20039;-71
2021/10/21 04:47:49;;;;;;;41.60;19.13;;;;;;;3.80;100.00;95603.91;5101680;28;20040;-71
2021/10/21 04:50:16;;;;;;;57.88;26.05;;;;;;;3.60;100.00;95604.31;5103798;28;20043;-71
2021/10/21 04:52:43;;;;;;;66.63;27.00;;;;;;;3.60;100.00;95609.47;5103805;28;20722;-70
2021/10/21 04:55:10;;;;;;;48.67;24.98;;;;;;;3.35;100.00;95595.06;5102609;28;20069;-71
2021/10/21 04:57:36;;;;;;;42.97;19.75;;;;;;;3.32;100.00;95610.88;5086147;28;20051;-71
2021/10/21 05:00:04;;;;;;;39.33;19.50;;;;;;;2.93;100.00;95585.88;5104341;27;20078;-70
2021/10/21 05:02:31;;;;;;;35.95;18.52;;;;;;;2.86;100.00;95609.69;5102685;28;20040;-70
2021/10/21 05:04:58;;;;;;;39.30;17.83;;;;;;;2.93;100.00;95603.88;5110593;28;20146;-71
2021/10/21 05:07:25;;;;;;;36.20;17.25;;;;;;;2.73;100.00;95578.50;5102741;28;20035;-71
2021/10/21 05:09:52;;;;;;;40.47;17.65;;;;;;;2.96;100.00;95609.50;5106030;28;20092;-70
2021/10/21 05:12:19;;;;;;;35.58;15.18;;;;;;;3.03;100.00;95607.09;5102896;28;20047;-71
2021/10/21 05:14:45;;;;;;;38.75;17.58;;;;;;;3.04;100.00;95611.25;5086777;28;20039;-71
2021/10/21 05:17:12;;;;;;;32.30;16.02;;;;;;;3.03;100.00;95596.78;5104652;28;20489;-71
2021/10/21 05:19:39;;;;;;;32.05;15.27;;;;;;;3.01;100.00;95578.13;5106530;28;20416;-70
2021/10/21 05:22:06;;;;;;;37.08;15.82;;;;;;;3.14;100.00;95614.44;5105200;28;20035;-70
2021/10/21 05:24:33;;;;;;;36.13;15.07;;;;;;;3.18;100.00;95610.56;5087727;28;20043;-71
2021/10/21 05:26:59;;;;;;;28.98;14.95;;;;;;;3.22;100.00;95609.28;5107547;28;20446;-71
2021/10/21 05:29:27;;;;;;;25.85;13.55;;;;;;;3.25;100.00;95614.09;5087523;28;20085;-70
2021/10/21 05:31:53;;;;;;;27.25;14.35;;;;;;;3.24;100.00;95604.78;5087797;28;20050;-71
2021/10/21 05:34:21;;;;;;;28.40;13.18;;;;;;;3.23;100.00;95608.31;5106619;28;20063;-69
2021/10/21 05:36:48;;;;;;;27.77;12.55;;;;;;;3.13;100.00;95602.53;5102781;28;20489;-70
2021/10/21 05:39:15;;;;;;;28.83;14.40;;;;;;;3.10;100.00;95607.22;5107277;28;20043;-69
2021/10/21 05:41:42;;;;;;;25.48;13.52;;;;;;;3.22;100.00;95605.88;5112037;28;20053;-69
2021/10/21 05:44:09;;;;;;;27.45;12.98;;;;;;;3.20;100.00;95597.53;5110854;27;20108;-69
2021/10/21 05:46:36;;;;;;;35.53;15.10;;;;;;;3.30;100.00;95602.50;5095686;27;20038;-69
2021/10/21 05:49:03;;;;;;;32.63;15.45;;;;;;;3.38;100.00;95598.09;5108621;27;20044;-69
2021/10/21 05:51:30;;;;;;;32.55;16.90;;;;;;;3.53;100.00;95598.22;5106153;27;20055;-70
2021/10/21 05:53:57;;;;;;;39.47;15.77;;;;;;;3.52;100.00;95570.06;5111064;27;20070;-69
2021/10/21 05:56:24;;;;;;;35.35;15.52;;;;;;;3.70;100.00;95585.25;5111207;27;20035;-69
2021/10/21 05:58:50;;;;;;;37.53;16.02;;;;;;;3.84;100.00;95594.84;5112018;27;20039;-70
2021/10/21 06:01:17;;;;;;;43.25;16.15;;;;;;;3.87;100.00;95584.22;5110655;27;20070;-70
2021/10/21 06:03:44;;;;;;;34.00;15.75;;;;;;;3.97;100.00;95587.34;5110932;27;20051;-70
2021/10/21 06:06:11;;;;;;;33.42;15.70;;;;;;;3.96;100.00;95565.13;5104557;27;20043;-70
2021/10/21 06:08:38;;;;;;;38.97;18.23;;;;;;;4.09;100.00;95581.78;5106748;27;20105;-70
2021/10/21 06:11:05;;;;;;;38.38;16.98;;;;;;;4.24;100.00;95580.09;5110829;27;20053;-69
2021/10/21 06:13:36;;;;;;;35.83;17.67;;;;;;;4.34;100.00;95580.66;5109401;27;20097;-70
2021/10/21 06:16:04;;;;;;;36.70;18.42;;;;;;;4.39;100.00;95583.53;5096350;27;20637;-70
2021/10/21 06:18:33;;;;;;;45.85;21.60;;;;;;;4.52;100.00;95576.94;5090481;28;20080;-69
2021/10/21 06:21:03;;;;;;;41.60;21.50;;;;;;;4.66;100.00;95583.13;5117919;27;20436;-70
2021/10/21 06:23:29;;;;;;;44.80;21.90;;;;;;;4.70;100.00;95561.97;5111058;27;20032;-70
2021/10/21 06:25:57;;;;;;;55.20;25.35;;;;;;;4.90;100.00;95579.53;5094025;28;20027;-70
2021/10/21 06:28:28;;;;;;;48.85;24.73;;;;;;;4.95;100.00;95566.88;5096889;28;20075;-69
2021/10/21 06:30:55;;;;;;;37.15;20.30;;;;;;;5.08;100.00;95564.47;5114499;27;20047;-69
2021/10/21 06:33:22;;;;;;;35.35;18.92;;;;;;;5.27;100.00;95564.91;5087396;27;20050;-69
2021/10/21 06:35:49;;;;;;;42.90;16.15;;;;;;;5.41;100.00;95566.69;5113409;27;20034;-70
2021/10/21 06:38:16;;;;;;;29.23;15.35;;;;;;;5.54;100.00;95561.66;5113124;27;20799;-69
2021/10/21 06:40:42;;;;;;;24.90;13.93;;;;;;;5.52;100.00;95553.28;5114422;27;20050;-70
2021/10/21 06:43:09;;;;;;;29.60;16.30;;;;;;;5.68;100.00;95556.66;5112763;27;20047;-71
2021/10/21 06:45:36;;;;;;;51.75;26.98;;;;;;;5.77;100.00;95559.94;5112812;27;20040;-70
2021/10/21 06:48:03;;;;;;;33.60;16.80;;;;;;;5.83;100.00;95560.00;5115902;27;20044;-70
2021/10/21 06:50:30;;;;;;;24.40;13.90;;;;;;;5.85;100.00;95563.22;5113566;27;20099;-71
2021/10/21 06:52:57;;;;;;;26.75;14.02;;;;;;;5.85;100.00;95563.22;5111576;27;20046;-70
2021/10/21 06:55:25;;;;;;;27.02;15.00;;;;;;;5.97;100.00;95567.94;5110844;27;20107;-70
2021/10/21 06:57:57;;;;;;;22.23;13.48;;;;;;;6.02;100.00;95563.00;5108406;27;20043;-71
2021/10/21 07:00:25;;;;;;;26.65;14.45;;;;;;;6.08;100.00;95564.84;5111463;27;20523;-70
2021/10/21 07:02:53;;;;;;;28.30;13.00;;;;;;;6.23;100.00;95560.44;5108911;27;20058;-70
2021/10/21 07:05:22;;;;;;;24.77;14.35;;;;;;;6.38;100.00;95564.72;5110592;27;20101;-70
2021/10/21 07:07:49;;;;;;;27.00;14.80;;;;;;;6.49;100.00;95569.41;5111303;27;20113;-70
2021/10/21 07:10:16;;;;;;;28.63;14.20;;;;;;;6.63;100.00;95559.97;5095100;27;20048;-70
2021/10/21 07:12:45;;;;;;;27.73;15.48;;;;;;;6.70;100.00;95566.78;5110741;27;20120;-71
2021/10/21 07:15:12;;;;;;;28.95;14.85;;;;;;;6.80;100.00;95555.28;5116310;27;20044;-71
2021/10/21 07:17:40;;;;;;;27.30;13.68;;;;;;;6.92;100.00;95558.94;5116116;27;20109;-71
2021/10/21 07:20:09;;;;;;;24.20;13.35;;;;;;;7.02;100.00;95559.41;5094615;28;20047;-71
2021/10/21 07:22:36;;;;;;;26.73;13.48;;;;;;;7.06;100.00;95550.28;5098479;28;20043;-71
2021/10/21 07:25:03;;;;;;;34.30;13.43;;;;;;;7.28;100.00;95542.41;5110941;27;20429;-71
2021/10/21 07:27:30;;;;;;;29.52;13.80;;;;;;;7.43;100.00;95550.03;5113938;27;20035;-71
2021/10/21 07:29:57;;;;;;;22.05;12.25;;;;;;;7.58;100.00;95544.72;5114589;27;20499;-70
2021/10/21 07:32:23;;;;;;;23.40;13.18;;;;;;;7.75;100.00;95538.19;5115442;27;20043;-71
2021/10/21 07:34:51;;;;;;;24.65;13.23;;;;;;;7.93;100.00;95539.44;5114806;27;20437;-71
2021/10/21 07:37:18;;;;;;;24.45;13.10;;;;;;;8.06;100.00;95523.88;5101104;27;20432;-71
2021/10/21 07:39:45;;;;;;;26.15;12.35;;;;;;;8.23;100.00;95514.72;5108249;27;20043;-72
2021/10/21 07:42:12;;;;;;;26.80;12.52;;;;;;;8.48;100.00;95521.97;5104662;28;20093;-72
2021/10/21 07:44:41;;;;;;;25.65;13.25;;;;;;;8.57;100.00;95525.94;5112837;27;20051;-72
2021/10/21 07:47:08;;;;;;;28.55;15.50;;;;;;;8.78;100.00;95521.50;5109941;27;20048;-71
2021/10/21 07:49:35;;;;;;;27.10;14.27;;;;;;;8.84;100.00;95523.31;5107207;27;20042;-71
2021/10/21 07:52:03;;;;;;;28.05;14.88;;;;;;;8.93;100.00;95524.69;5110600;27;20036;-72
2021/10/21 07:54:31;;;;;;;24.25;14.50;;;;;;;9.09;100.00;95522.66;5112036;27;20070;-72
2021/10/21 07:57:00;;;;;;;23.45;13.30;;;;;;;9.28;99.36;95515.81;5108058;27;20536;-72
2021/10/21 07:59:27;;;;;;;32.08;16.92;;;;;;;9.41;97.90;95514.94;5107514;27;20040;-72
2021/10/21 08:01:57;;;;;;;26.25;13.48;;;;;;;9.47;96.76;95519.31;5114002;27;20047;-71
2021/10/21 08:04:28;;;;;;;24.13;12.80;;;;;;;9.56;95.73;95510.25;5100965;27;20039;-71
2021/10/21 08:06:56;;;;;;;31.48;15.02;;;;;;;9.63;94.66;95503.22;5120607;27;20055;-71
2021/10/21 08:09:24;;;;;;;36.75;19.30;;;;;;;9.67;95.09;95504.44;5117237;27;20048;-72
2021/10/21 08:11:53;;;;;;;31.17;16.15;;;;;;;9.86;96.04;95501.91;5107512;28;20040;-72
2021/10/21 08:14:20;;;;;;;41.92;20.02;;;;;;;9.92;95.46;95496.69;5106942;27;21780;-71
2021/10/21 08:16:47;;;;;;;29.75;16.38;;;;;;;10.04;95.85;95494.19;5108722;27;20042;-72
2021/10/21 08:19:15;;;;;;;30.27;15.02;;;;;;;10.10;94.32;95493.34;5115108;27;20126;-72
2021/10/21 08:21:42;;;;;;;28.35;15.73;;;;;;;10.01;94.34;95479.00;5091861;28;20050;-71
2021/10/21 08:24:09;;;;;;;31.33;15.95;;;;;;;10.14;95.55;95489.31;5112746;27;20051;-72
2021/10/21 08:26:37;;;;;;;32.35;16.25;;;;;;;10.38;94.89;95489.56;5108765;27;20114;-72
2021/10/21 08:29:07;;;;;;;31.60;15.75;;;;;;;10.55;92.42;95489.81;5107349;27;20047;-72
2021/10/21 08:31:35;;;;;;;30.13;17.20;;;;;;;10.64;91.22;95493.75;5089516;28;20054;-71
2021/10/21 08:34:02;;;;;;;22.77;13.25;;;;;;;10.60;91.28;95465.72;5107663;27;20055;-66
2021/10/21 08:36:29;;;;;;;26.52;14.15;;;;;;;10.99;91.34;95489.81;5105333;27;20101;-74
2021/10/21 08:38:56;;;;;;;22.55;13.10;;;;;;;11.10;88.93;95486.47;5106819;27;20074;-74
2021/10/21 08:41:26;;;;;;;25.70;13.43;;;;;;;11.32;88.37;95486.03;5104092;28;20043;-74
2021/10/21 08:43:53;;;;;;;24.95;12.68;;;;;;;11.44;85.41;95466.81;5104279;27;20051;-73
2021/10/21 08:46:23;;;;;;;30.08;14.82;;;;;;;11.65;84.78;95478.59;5107925;27;20512;-73
2021/10/21 08:49:02;;;;;;;28.15;14.93;;;;;;;11.73;83.78;95480.06;5088303;28;20044;-73
2021/10/21 08:51:31;;;;;;;25.35;14.20;;;;;;;11.80;85.75;95469.56;5104613;27;20050;-73
2021/10/21 08:53:59;;;;;;;29.33;15.18;;;;;;;12.00;84.19;95459.63;5103387;28;20512;-74
2021/10/21 08:56:26;;;;;;;30.13;14.40;;;;;;;12.34;83.36;95459.91;5104614;28;20035;-73
2021/10/21 08:58:57;;;;;;;23.10;13.13;;;;;;;12.58;81.69;95459.94;5106056;27;20035;-73
2021/10/21 09:01:42;;;;;;;18.63;11.40;;;;;;;12.76;80.80;95448.56;5104657;27;20050;-73
2021/10/21 09:04:22;;;;;;;19.05;10.73;;;;;;;13.01;78.01;95448.28;5105625;27;20043;-72
2021/10/21 09:09:29;;;;;;;16.88;10.80;;;;;;;13.47;77.15;95436.13;5106377;28;21662;-74
2021/10/21 09:12:08;;;;;;;19.60;10.70;;;;;;;13.81;75.40;95436.22;5102636;28;20084;-74
2021/10/21 09:14:36;;;;;;;15.55;9.40;;;;;;;14.04;75.21;95431.84;5103066;28;20047;-74
2021/10/21 09:17:04;;;;;;;17.35;9.38;;;;;;;14.23;73.33;95433.22;5105057;28;20059;-74
2021/10/21 09:19:31;;;;;;;17.00;9.07;;;;;;;14.52;71.62;95425.25;5109357;27;20043;-74
2021/10/21 09:22:05;;;;;;;15.55;9.05;;;;;;;14.76;71.49;95414.59;5110684;27;20039;-75
2021/10/21 09:24:40;;;;;;;14.32;8.70;;;;;;;14.82;71.08;95414.41;5095964;27;20047;-73
2021/10/21 09:27:13;;;;;;;18.75;11.23;;;;;;;15.19;72.04;95394.63;5110860;27;20042;-74
2021/10/21 09:29:45;;;;;;;17.90;8.82;;;;;;;15.38;67.71;95398.53;5093466;28;20051;-74
2021/10/21 09:32:16;;;;;;;16.42;9.43;;;;;;;15.50;68.70;95400.97;5082277;27;20050;-73
2021/10/21 09:34:47;;;;;;;16.73;10.27;;;;;;;15.69;65.43;95396.19;5106622;28;20073;-73
2021/10/21 09:37:16;;;;;;;15.27;9.02;;;;;;;16.23;63.75;95390.88;5108752;27;20047;-73
2021/10/21 09:40:14;;;;;;;28.73;10.82;;;;;;;16.66;64.36;95393.50;5106944;27;20140;-73
2021/10/21 09:42:46;;;;;;;19.10;10.32;;;;;;;16.97;63.69;95389.19;5110871;27;20125;-73
2021/10/21 09:45:18;;;;;;;15.23;9.88;;;;;;;17.23;61.32;95381.38;5108880;27;20739;-72
2021/10/21 09:47:53;;;;;;;13.63;8.77;;;;;;;17.52;60.59;95375.66;5110652;27;20043;-72
2021/10/21 09:50:34;;;;;;;16.05;9.65;;;;;;;17.44;56.73;95376.19;5108494;27;20051;-73
2021/10/21 09:53:02;;;;;;;15.32;8.63;;;;;;;17.89;58.56;95372.03;5107195;27;20096;-73
2021/10/21 09:55:33;;;;;;;14.93;8.30;;;;;;;18.24;54.82;95373.06;5106365;28;20660;-73
2021/10/21 09:58:02;;;;;;;17.77;9.73;;;;;;;18.32;54.46;95369.91;5106710;27;20046;-73
2021/10/21 10:00:32;;;;;;;16.48;9.65;;;;;;;18.23;53.50;95353.03;5108837;27;20043;-73
2021/10/21 10:03:12;;;;;;;14.60;8.90;;;;;;;18.83;51.27;95348.66;5107102;27;20043;-72
2021/10/21 10:05:52;;;;;;;12.27;8.57;;;;;;;19.00;50.39;95348.34;5109317;27;20043;-73
2021/10/21 10:08:23;;;;;;;15.68;9.75;;;;;;;18.54;52.95;95349.25;5091577;28;20104;-72
2021/10/21 10:10:57;;;;;;;13.90;8.18;;;;;;;19.12;49.68;95329.53;5111050;27;20040;-73
2021/10/21 10:13:25;;;;;;;15.18;7.65;;;;;;;19.52;48.49;95330.38;5108920;27;20036;-73
2021/10/21 10:15:53;;;;;;;12.40;8.20;;;;;;;20.22;46.56;95324.78;5110418;27;20127;-73
2021/10/21 10:18:23;;;;;;;13.68;8.02;;;;;;;20.70;45.72;95318.72;5108927;27;20048;-73
2021/10/21 10:21:21;;;;;;;15.13;8.48;;;;;;;20.46;46.53;95312.66;5092626;28;20081;-73
2021/10/21 10:24:02;;;;;;;10.93;7.65;;;;;;;20.37;45.72;95310.59;5105268;28;20119;-73
2021/10/21 10:26:57;;;;;;;10.15;7.22;;;;;;;20.04;48.31;95302.47;5111539;27;20035;-73
2021/10/21 10:29:36;;;;;;;;;;;;;;;21.09;44.61;95293.88;5109381;27;20039;-73
2021/10/21 10:32:06;;;;;;;10.75;7.28;;;;;;;21.62;42.84;95284.91;5113588;27;19969;-73
2021/10/21 10:34:33;;;;;;;10.95;6.47;;;;;;;22.26;41.07;95303.75;5110141;27;20058;-73
2021/10/21 10:37:21;;;;;;;12.02;7.35;;;;;;;22.78;39.17;95292.13;5097085;27;20040;-72
2021/10/21 10:39:58;;;;;;;11.65;7.60;;;;;;;23.16;37.94;95284.72;5115093;27;20400;-72
2021/10/21 10:42:31;;;;;;;12.02;7.57;;;;;;;23.08;38.63;95278.25;5110231;27;20038;-73
2021/10/21 10:45:02;;;;;;;13.70;7.95;;;;;;;22.73;38.48;95279.75;5110512;27;20048;-72
2021/10/21 10:47:52;;;;;;;13.15;6.93;;;;;;;22.92;38.32;95266.34;5079716;28;20156;-72
2021/10/21 10:50:22;;;;;;;10.32;7.03;;;;;;;22.82;38.99;95267.34;5118468;27;20042;-72
2021/10/21 10:52:53;;;;;;;11.85;7.45;;;;;;;23.44;37.77;95260.69;5112181;27;20054;-73
2021/10/21 10:55:35;;;;;;;9.32;6.60;;;;;;;23.08;38.11;95259.66;5106311;28;20678;-72
2021/10/21 10:58:03;;;;;;;11.77;7.75;;;;;;;22.87;40.16;95255.84;5105326;27;20044;-69
2021/10/21 11:00:52;;;;;;;12.18;7.80;;;;;;;23.79;37.54;95240.44;5104523;27;20090;-68
2021/10/21 11:03:33;;;;;;;9.73;7.05;;;;;;;24.66;35.72;95249.91;5103974;27;20047;-68
2021/10/21 11:06:04;;;;;;;10.50;7.38;;;;;;;24.79;34.49;95241.00;5103631;28;20040;-68
2021/10/21 11:08:51;;;;;;;10.07;6.13;;;;;;;24.83;35.08;95233.97;5105880;27;20382;-72
2021/10/21 11:11:51;;;;;;;9.45;6.13;;;;;;;24.39;36.25;95227.72;5093418;27;20055;-73
2021/10/21 11:14:21;;;;;;;14.13;7.30;;;;;;;23.92;38.25;95222.06;5090874;27;20803;-74
2021/10/21 11:16:49;;;;;;;9.10;6.90;;;;;;;23.55;37.12;95229.34;5108899;27;20047;-73
2021/10/21 11:19:45;;;;;;;10.45;7.30;;;;;;;24.59;37.52;95221.84;5106241;28;20128;-72
2021/10/21 11:22:32;;;;;;;8.82;5.93;;;;;;;23.83;36.07;95220.16;5106630;27;20036;-73
2021/10/21 11:25:03;;;;;;;7.45;5.85;;;;;;;23.81;36.52;95216.25;5106239;27;20043;-71
2021/10/21 11:27:44;;;;;;;8.85;6.05;;;;;;;23.97;34.46;95213.97;5091081;28;20044;-71
2021/10/21 11:30:18;;;;;;;8.27;6.20;;;;;;;24.54;35.04;95206.03;5105927;27;20577;-71
2021/10/21 11:33:05;;;;;;;8.13;5.68;;;;;;;25.58;32.82;95199.13;5108542;27;20101;-72